createdAt,value
2019-04-10T00:00:37.364Z,97488.02
2019-04-10T00:04:43.255Z,97492.20
2019-04-10T00:08:48.518Z,97494.28
2019-04-10T00:12:54.137Z,97490.64
2019-04-10T00:16:59.021Z,97496.64
2019-04-10T00:21:04.979Z,97486.25
2019-04-10T00:25:10.714Z,97491.27
2019-04-10T00:29:16.150Z,97481.55
2019-04-10T00:33:21.058Z,97486.89
2019-04-10T00:37:28.486Z,97486.63
2019-04-10T00:41:32.581Z,97488.13
2019-04-10T00:45:37.708Z,97484.84
2019-04-10T00:49:44.192Z,97474.14
2019-04-10T00:53:49.757Z,97478.70
2019-04-10T00:57:55.220Z,97480.91
2019-04-10T01:02:01.063Z,97478.16
2019-04-10T01:06:06.019Z,97481.53
2019-04-10T01:10:12.497Z,97480.87
2019-04-10T01:14:17.891Z,97486.59
2019-04-10T01:18:23.876Z,97480.91
2019-04-10T01:22:28.791Z,97481.64
2019-04-10T01:26:33.686Z,97480.02
2019-04-10T01:30:38.597Z,97475.75
2019-04-10T01:34:43.509Z,97472.81
2019-04-10T01:38:49.513Z,97470.97
2019-04-10T01:43:08.246Z,97466.62
2019-04-10T01:47:01.009Z,97461.39
2019-04-10T01:51:06.705Z,97454.54
2019-04-10T01:55:20.096Z,97461.38
2019-04-10T01:59:20.193Z,97458.17
2019-04-10T02:03:25.698Z,97453.31
2019-04-10T02:07:30.684Z,97461.76
2019-04-10T02:11:35.583Z,97453.81
2019-04-10T02:15:40.510Z,97451.78
2019-04-10T02:19:46.104Z,97450.57
2019-04-10T02:23:51.123Z,97447.14
2019-04-10T02:27:56.386Z,97442.65
2019-04-10T02:32:02.069Z,97446.69
2019-04-10T02:36:08.441Z,97441.59
2019-04-10T02:40:15.035Z,97446.53
2019-04-10T02:44:20.619Z,97450.81
2019-04-10T02:48:25.538Z,97448.33
2019-04-10T02:52:30.886Z,97446.26
2019-04-10T02:56:36.652Z,97445.45
2019-04-10T03:00:42.109Z,97447.03
2019-04-10T03:04:48.932Z,97452.46
2019-04-10T03:09:07.936Z,97450.14
2019-04-10T03:13:00.853Z,97447.14
2019-04-10T03:17:05.999Z,97444.61
2019-04-10T03:21:11.041Z,97451.12
2019-04-10T03:25:18.374Z,97442.86
2019-04-10T03:29:24.077Z,97446.81
2019-04-10T03:33:33.100Z,97439.00
2019-04-10T03:37:37.375Z,97440.42
2019-04-10T03:41:42.298Z,97448.89
2019-04-10T03:45:48.642Z,97449.66
2019-04-10T03:49:54.058Z,97447.78
2019-04-10T03:53:59.042Z,97452.75
2019-04-10T03:58:03.976Z,97460.64
2019-04-10T04:02:08.878Z,97459.45
2019-04-10T04:06:13.811Z,97453.66
2019-04-10T04:10:18.906Z,97460.45
2019-04-10T04:14:24.200Z,97462.82
2019-04-10T04:18:29.226Z,97459.27
2019-04-10T04:22:34.114Z,97460.38
2019-04-10T04:26:40.117Z,97451.55
2019-04-10T04:30:45.724Z,97449.02
2019-04-10T04:34:50.567Z,97455.45
2019-04-10T04:38:55.507Z,97452.49
2019-04-10T04:43:00.391Z,97461.69
2019-04-10T04:47:06.285Z,97464.13
2019-04-10T04:51:11.301Z,97467.42
2019-04-10T04:55:16.201Z,97473.44
2019-04-10T04:59:21.131Z,97480.89
2019-04-10T05:03:27.007Z,97481.30
2019-04-10T05:07:32.046Z,97490.62
2019-04-10T05:11:36.980Z,97494.56
2019-04-10T05:15:42.949Z,97496.10
2019-04-10T05:19:47.854Z,97504.41
2019-04-10T05:23:53.371Z,97507.34
2019-04-10T05:27:59.358Z,97506.40
2019-04-10T05:32:05.113Z,97510.10
2019-04-10T05:36:10.162Z,97510.03
2019-04-10T05:40:15.267Z,97511.31
2019-04-10T05:44:20.261Z,97518.58
2019-04-10T05:48:26.376Z,97520.94
2019-04-10T05:52:31.430Z,97533.55
2019-04-10T05:56:36.482Z,97536.70
2019-04-10T06:00:41.344Z,97537.08
2019-04-10T06:04:46.262Z,97542.17
2019-04-10T06:08:51.205Z,97545.28
2019-04-10T06:12:56.091Z,97548.21
2019-04-10T06:17:03.954Z,97537.13
2019-04-10T06:21:07.630Z,97538.97
2019-04-10T06:25:15.318Z,97544.54
2019-04-10T06:29:19.271Z,97546.91
2019-04-10T06:33:25.569Z,97541.30
2019-04-10T06:37:30.778Z,97543.28
2019-04-10T06:41:36.817Z,97547.50
2019-04-10T06:45:42.013Z,97545.67
2019-04-10T06:49:47.881Z,97546.72
2019-04-10T06:54:00.829Z,97550.05
2019-04-10T06:58:00.742Z,97559.65
2019-04-10T07:02:16.661Z,97562.56
2019-04-10T07:06:17.656Z,97556.20
2019-04-10T07:10:28.611Z,97561.24
2019-04-10T07:14:28.713Z,97572.30
2019-04-10T07:18:35.866Z,97567.48
2019-04-10T07:22:46.607Z,97571.74
2019-04-10T07:26:49.293Z,97575.44
2019-04-10T07:30:56.844Z,97576.56
2019-04-10T07:35:01.903Z,97579.89
2019-04-10T07:39:07.838Z,97579.70
2019-04-10T07:43:13.273Z,97586.51
2019-04-10T07:47:20.513Z,97588.75
2019-04-10T07:51:25.630Z,97580.64
2019-04-10T07:55:30.944Z,97594.16
2019-04-10T07:59:37.563Z,97585.05
2019-04-10T08:03:43.757Z,97599.34
2019-04-10T08:07:48.805Z,97595.44
2019-04-10T08:11:54.451Z,97605.56
2019-04-10T08:16:00.696Z,97597.78
2019-04-10T08:20:07.915Z,97598.39
2019-04-10T08:24:13.505Z,97600.30
2019-04-10T08:28:18.465Z,97601.30
2019-04-10T08:32:23.676Z,97602.55
2019-04-10T08:36:29.638Z,97611.45
2019-04-10T08:40:42.411Z,97608.69
2019-04-10T08:44:48.654Z,97610.39
2019-04-10T08:48:53.949Z,97618.96
2019-04-10T08:52:59.916Z,97611.97
2019-04-10T08:57:05.994Z,97608.50
2019-04-10T09:01:11.200Z,97620.19
2019-04-10T09:05:17.437Z,97613.72
2019-04-10T09:09:23.672Z,97608.64
2019-04-10T09:13:28.633Z,97614.48
2019-04-10T09:17:33.565Z,97637.80
2019-04-10T09:21:38.869Z,97623.41
2019-04-10T09:25:43.892Z,97605.30
2019-04-10T09:29:48.814Z,97611.38
2019-04-10T09:33:55.703Z,97610.27
2019-04-10T09:38:00.604Z,97607.16
2019-04-10T09:42:06.727Z,97603.98
2019-04-10T09:46:12.733Z,97603.75
2019-04-10T09:50:17.790Z,97597.67
2019-04-10T09:54:23.793Z,97603.86
2019-04-10T09:58:29.576Z,97609.98
2019-04-10T10:02:35.712Z,97598.88
2019-04-10T10:06:40.653Z,97602.81
2019-04-10T10:10:45.714Z,97600.59
2019-04-10T10:14:51.797Z,97594.56
2019-04-10T10:18:57.411Z,97604.69
2019-04-10T10:23:03.326Z,97601.67
2019-04-10T10:27:09.376Z,97589.67
2019-04-10T10:31:14.432Z,97588.69
2019-04-10T10:35:19.416Z,97589.94
2019-04-10T10:39:24.325Z,97583.49
2019-04-10T10:43:29.329Z,97587.96
2019-04-10T10:47:34.228Z,97592.98
2019-04-10T10:51:39.231Z,97597.83
2019-04-10T10:55:44.164Z,97591.00
2019-04-10T10:59:49.436Z,97599.45
2019-04-10T11:03:56.332Z,97593.22
2019-04-10T11:08:01.262Z,97591.67
2019-04-10T11:12:06.694Z,97604.30
2019-04-10T11:16:13.072Z,97609.16
2019-04-10T11:20:19.972Z,97607.23
2019-04-10T11:24:25.489Z,97614.19
2019-04-10T11:28:32.280Z,97607.08
2019-04-10T11:32:38.037Z,97602.91
2019-04-10T11:36:44.050Z,97613.11
2019-04-10T11:40:49.688Z,97614.34
2019-04-10T11:44:55.486Z,97598.86
2019-04-10T11:49:00.959Z,97598.20
2019-04-10T11:53:07.039Z,97599.27
2019-04-10T11:57:16.172Z,97594.41
2019-04-10T12:01:22.830Z,97603.66
2019-04-10T12:05:29.135Z,97614.31
2019-04-10T12:13:40.792Z,97601.59
2019-04-10T12:17:46.513Z,97599.50
2019-04-10T12:21:51.556Z,97614.23
2019-04-10T12:25:56.486Z,97603.69
2019-04-10T12:30:01.409Z,97606.51
2019-04-10T12:34:08.797Z,97608.65
2019-04-10T12:38:13.747Z,97610.35
2019-04-10T12:42:19.747Z,97592.26
2019-04-10T12:46:24.705Z,97606.29
2019-04-10T12:50:30.679Z,97600.91
2019-04-10T12:54:35.694Z,97611.36
2019-04-10T12:58:40.606Z,97606.90
2019-04-10T13:02:45.521Z,97616.41
2019-04-10T13:06:52.597Z,97619.39
2019-04-10T13:10:58.080Z,97613.27
2019-04-10T13:15:05.371Z,97613.73
2019-04-10T13:19:11.200Z,97621.03
2019-04-10T13:23:17.672Z,97623.91
2019-04-10T13:27:23.105Z,97619.06
2019-04-10T13:31:28.044Z,97622.12
2019-04-10T13:35:32.951Z,97613.65
2019-04-10T13:39:37.874Z,97626.74
2019-04-10T13:43:42.821Z,97613.00
2019-04-10T13:47:48.548Z,97620.25
2019-04-10T13:51:54.551Z,97624.56
2019-04-10T13:55:59.486Z,97617.36
2019-04-10T14:00:05.848Z,97618.28
2019-04-10T14:04:11.219Z,97611.36
2019-04-10T14:08:16.670Z,97625.64
2019-04-10T14:12:22.821Z,97616.37
2019-04-10T14:16:28.718Z,97629.90
2019-04-10T14:20:33.655Z,97638.48
2019-04-10T14:24:44.171Z,97634.17
2019-04-10T14:28:45.600Z,97637.38
2019-04-10T14:32:51.489Z,97642.50
2019-04-10T14:36:56.894Z,97646.33
2019-04-10T14:41:01.878Z,97644.63
2019-04-10T14:45:07.529Z,97655.85
2019-04-10T14:49:13.217Z,97656.06
2019-04-10T14:53:19.276Z,97657.05
2019-04-10T14:57:24.379Z,97655.95
2019-04-10T15:01:30.246Z,97649.81
2019-04-10T15:05:46.542Z,97652.33
2019-04-10T15:09:42.920Z,97649.06
2019-04-10T15:13:48.746Z,97656.38
2019-04-10T15:17:54.156Z,97667.30
2019-04-10T15:21:59.183Z,97665.11
2019-04-10T15:26:04.195Z,97670.02
2019-04-10T15:30:10.525Z,97671.11
2019-04-10T15:34:16.182Z,97674.16
2019-04-10T15:38:21.992Z,97683.64
2019-04-10T15:42:27.821Z,97673.73
2019-04-10T15:46:33.201Z,97691.27
2019-04-10T15:50:41.348Z,97680.32
2019-04-10T15:54:46.457Z,97673.01
2019-04-10T15:58:52.120Z,97684.48
2019-04-10T16:02:57.426Z,97687.22
2019-04-10T16:07:02.331Z,97683.27
2019-04-10T16:11:09.843Z,97704.39
2019-04-10T16:15:15.282Z,97690.38
2019-04-10T16:19:30.969Z,97693.86
2019-04-10T16:23:42.153Z,97702.17
2019-04-10T16:27:47.883Z,97713.55
2019-04-10T16:31:53.214Z,97719.03
2019-04-10T16:35:59.020Z,97721.20
2019-04-10T16:40:09.762Z,97722.55
2019-04-10T16:44:14.788Z,97725.88
2019-04-10T16:48:21.011Z,97718.20
2019-04-10T16:52:27.054Z,97724.48
2019-04-10T16:56:32.109Z,97720.36
2019-04-10T17:00:37.678Z,97733.96
2019-04-10T17:04:43.785Z,97741.12
2019-04-10T17:08:48.758Z,97732.73
2019-04-10T17:12:53.943Z,97746.77
2019-04-10T17:16:59.042Z,97743.04
2019-04-10T17:21:04.761Z,97760.37
2019-04-10T17:25:10.078Z,97755.92
2019-04-10T17:29:15.017Z,97756.20
2019-04-10T17:33:21.008Z,97759.08
2019-04-10T17:37:25.934Z,97762.84
2019-04-10T17:41:31.396Z,97769.69
2019-04-10T17:45:36.633Z,97767.50
2019-04-10T17:49:41.551Z,97772.73
2019-04-10T17:53:47.405Z,97778.20
2019-04-10T17:57:54.518Z,97781.59
2019-04-10T18:02:01.219Z,97791.43
2019-04-10T18:06:07.069Z,97795.66
2019-04-10T18:10:12.001Z,97802.95
2019-04-10T18:14:17.398Z,97806.42
2019-04-10T18:18:22.407Z,97811.72
2019-04-10T18:22:27.339Z,97811.34
2019-04-10T18:26:32.257Z,97825.59
2019-04-10T18:30:37.606Z,97838.91
2019-04-10T18:34:44.446Z,97844.30
2019-04-10T18:38:50.094Z,97848.98
2019-04-10T18:42:57.616Z,97858.52
2019-04-10T18:47:02.851Z,97868.58
2019-04-10T18:51:09.429Z,97864.38
2019-04-10T18:55:14.356Z,97873.09
2019-04-10T18:59:27.038Z,97877.36
2019-04-10T19:03:46.180Z,97893.69
2019-04-10T19:07:43.094Z,97887.92
2019-04-10T19:11:48.313Z,97899.06
2019-04-10T19:15:53.375Z,97893.24
2019-04-10T19:19:58.800Z,97898.23
2019-04-10T19:24:03.860Z,97905.16
2019-04-10T19:28:08.739Z,97909.66
2019-04-10T19:32:16.249Z,97922.63
2019-04-10T19:36:21.285Z,97923.21
2019-04-10T19:40:26.199Z,97927.27
2019-04-10T19:44:31.133Z,97937.42
2019-04-10T19:48:36.163Z,97939.34
2019-04-10T19:52:42.002Z,97943.28
2019-04-10T19:56:46.926Z,97943.23
2019-04-10T20:00:52.689Z,97949.53
2019-04-10T20:04:58.764Z,97954.48
2019-04-10T20:09:06.324Z,97951.08
2019-04-10T20:13:11.523Z,97956.41
2019-04-10T20:17:16.627Z,97963.94
2019-04-10T20:21:21.514Z,97967.76
2019-04-10T20:25:26.486Z,97966.52
2019-04-10T20:29:31.388Z,97966.33
2019-04-10T20:33:36.289Z,97976.30
2019-04-10T20:37:41.202Z,97973.23
2019-04-10T20:41:51.972Z,97977.41
2019-04-10T20:45:53.719Z,97985.32
2019-04-10T20:49:59.586Z,97988.14
2019-04-10T20:54:04.614Z,97995.06
2019-04-10T20:58:09.534Z,98000.37
2019-04-10T21:02:14.442Z,98001.00
2019-04-10T21:06:19.377Z,98002.41
2019-04-10T21:10:25.480Z,98012.03
2019-04-10T21:14:31.656Z,98012.07
2019-04-10T21:18:37.727Z,98013.21
2019-04-10T21:22:42.816Z,98019.03
2019-04-10T21:26:48.515Z,98014.30
2019-04-10T21:30:59.075Z,98019.41
2019-04-10T21:35:07.454Z,98020.72
2019-04-10T21:39:13.729Z,98020.42
2019-04-10T21:43:20.278Z,98034.94
2019-04-10T21:47:26.320Z,98037.23
2019-04-10T21:51:31.220Z,98033.86
2019-04-10T21:55:36.133Z,98040.89
2019-04-10T21:59:41.043Z,98043.75
2019-04-10T22:03:46.940Z,98035.88
2019-04-10T22:08:03.091Z,98039.09
2019-04-10T22:12:22.213Z,98042.28
2019-04-10T22:16:18.052Z,98045.66
2019-04-10T22:20:23.569Z,98047.05
2019-04-10T22:24:29.762Z,98047.11
2019-04-10T22:28:34.749Z,98049.38
2019-04-10T22:32:40.698Z,98052.80
2019-04-10T22:36:45.771Z,98054.64
2019-04-10T22:40:50.674Z,98057.72
2019-04-10T22:44:56.565Z,98073.31
2019-04-10T22:49:02.005Z,98056.96
2019-04-10T22:53:07.063Z,98067.48
2019-04-10T22:57:12.521Z,98069.30
2019-04-10T23:01:18.526Z,98065.03
2019-04-10T23:05:24.549Z,98070.38
2019-04-10T23:09:30.583Z,98072.16
2019-04-10T23:13:36.258Z,98074.32
2019-04-10T23:17:41.217Z,98071.42
2019-04-10T23:21:47.043Z,98075.31
2019-04-10T23:25:53.252Z,98074.53
2019-04-10T23:29:58.167Z,98084.52
2019-04-10T23:34:04.092Z,98086.69
2019-04-10T23:38:09.208Z,98088.05
2019-04-10T23:42:14.883Z,98084.18
2019-04-10T23:46:20.129Z,98086.02
2019-04-10T23:50:26.041Z,98092.56
2019-04-10T23:54:31.197Z,98088.74
2019-04-10T23:58:36.113Z,98086.27
